Time;durP1;ratioP1;P1;durP2;ratioP2;P2;SDS_P1;SDS_P2;PMS_P1;PMS_P2;Temp;Humidity;BMP_temperature;BMP_pressure;BME280_temperature;BME280_humidity;BME280_pressure;Samples;Min_cycle;Max_cycle;Signal;HPM_P1;HPM_P2
2021/07/11 00:00:24;;;;;;;4.90;1.73;;;;;;;;;;5100470;28;20501;-68
2021/07/11 00:02:50;;;;;;;2.63;1.93;;;;;;;;;;5095310;28;20422;-68
2021/07/11 00:05:17;;;;;;;2.60;1.80;;;;;;;;;;5093919;28;20415;-68
2021/07/11 00:07:44;;;;;;;9.37;2.03;;;;;;;;;;5095541;28;20465;-67
2021/07/11 00:10:10;;;;;;;2.90;1.67;;;;;;;;;;5093846;28;20463;-67
2021/07/11 00:12:37;;;;;;;2.50;1.80;;;;;;;;;;5092757;28;20757;-67
2021/07/11 00:15:06;;;;;;;3.63;2.27;;;;;;;;;;5097153;28;20426;-68
2021/07/11 00:17:32;;;;;;;4.53;2.80;;;;;;;;;;5094602;28;20774;-68
2021/07/11 00:19:59;;;;;;;3.33;2.43;;;;;;;;;;5092501;28;20482;-68
2021/07/11 00:22:25;;;;;;;2.90;2.30;;;;;;;;;;5094540;28;20415;-68
2021/07/11 00:24:51;;;;;;;2.40;2.00;;;;;;;;;;5092480;28;20420;-68
2021/07/11 00:27:17;;;;;;;3.27;2.10;;;;;;;;;;5093412;28;20411;-68
2021/07/11 00:29:43;;;;;;;2.70;2.00;;;;;;;;;;5093318;28;20440;-68
2021/07/11 00:32:09;;;;;;;3.03;2.00;;;;;;;;;;5094137;28;20408;-68
2021/07/11 00:34:35;;;;;;;2.70;2.30;;;;;;;;;;5092807;28;20413;-68
2021/07/11 00:37:02;;;;;;;4.33;2.20;;;;;;;;;;5093871;28;20404;-68
2021/07/11 00:39:28;;;;;;;4.13;2.50;;;;;;;;;;5088791;28;20471;-68
2021/07/11 00:41:54;;;;;;;2.60;2.10;;;;;;;;;;5073651;28;20912;-68
2021/07/11 00:44:20;;;;;;;2.60;1.97;;;;;;;;;;5076467;28;20750;-68
2021/07/11 00:46:46;;;;;;;2.23;1.83;;;;;;;;;;5094067;28;20443;-68
2021/07/11 00:49:14;;;;;;;2.60;2.10;;;;;;;;;;5092823;28;20444;-68
2021/07/11 00:51:40;;;;;;;2.30;1.70;;;;;;;;;;5093762;28;20396;-68
2021/07/11 00:54:06;;;;;;;3.40;2.53;;;;;;;;;;5092360;28;20766;-67
2021/07/11 00:56:32;;;;;;;2.97;1.70;;;;;;;;;;5093906;28;20538;-68
2021/07/11 00:58:58;;;;;;;2.30;1.57;;;;;;;;;;5093655;28;20878;-68
2021/07/11 01:01:26;;;;;;;3.00;2.17;;;;;;;;;;5093358;28;20427;-68
2021/07/11 01:03:55;;;;;;;8.23;2.60;;;;;;;;;;5092156;28;20412;-68
2021/07/11 01:06:22;;;;;;;2.90;2.00;;;;;;;;;;5073422;28;20429;-68
2021/07/11 01:09:01;;;;;;;2.53;1.80;;;;;;;;;;5077351;28;20802;-68
2021/07/11 01:11:28;;;;;;;2.90;2.20;;;;;;;;;;5092765;28;21015;-68
2021/07/11 01:13:56;;;;;;;3.00;2.17;;;;;;;;;;5093187;28;20389;-68
2021/07/11 01:16:28;;;;;;;2.37;1.67;;;;;;;;;;5092124;28;20448;-68
2021/07/11 01:18:56;;;;;;;4.37;2.30;;;;;;;;;;5093375;28;20426;-68
2021/07/11 01:21:22;;;;;;;2.80;2.20;;;;;;;;;;5092226;28;20416;-68
2021/07/11 01:23:54;;;;;;;2.90;2.17;;;;;;;;;;5093230;28;20400;-68
2021/07/11 01:26:21;;;;;;;2.90;2.30;;;;;;;;;;5085594;28;20408;-68
2021/07/11 01:28:48;;;;;;;3.17;2.67;;;;;;;;;;5089360;28;20464;-68
2021/07/11 01:31:15;;;;;;;7.07;4.53;;;;;;;;;;5096710;28;20462;-68
2021/07/11 01:33:42;;;;;;;2.93;2.03;;;;;;;;;;5092910;28;20404;-68
2021/07/11 01:36:08;;;;;;;2.73;2.07;;;;;;;;;;5090970;28;20420;-68
2021/07/11 01:38:35;;;;;;;4.40;2.10;;;;;;;;;;5092749;28;20432;-68
2021/07/11 01:41:03;;;;;;;2.37;1.90;;;;;;;;;;5091706;28;20439;-68
2021/07/11 01:43:30;;;;;;;4.10;2.03;;;;;;;;;;5092976;28;20443;-68
2021/07/11 01:45:56;;;;;;;3.10;2.57;;;;;;;;;;5092226;28;20424;-68
2021/07/11 01:48:22;;;;;;;2.37;1.80;;;;;;;;;;5092987;28;20423;-68
2021/07/11 01:50:52;;;;;;;2.53;1.90;;;;;;;;;;5080359;28;20456;-68
2021/07/11 01:53:22;;;;;;;2.77;1.90;;;;;;;;;;5092670;28;20419;-68
2021/07/11 01:55:48;;;;;;;2.50;1.67;;;;;;;;;;5091987;28;20428;-67
2021/07/11 01:58:14;;;;;;;3.30;2.00;;;;;;;;;;5092987;28;20395;-68
2021/07/11 02:00:40;;;;;;;4.13;1.53;;;;;;;;;;5091861;28;20443;-68
2021/07/11 02:03:15;;;;;;;2.53;1.63;;;;;;;;;;5093084;28;20487;-68
2021/07/11 02:05:41;;;;;;;4.73;2.37;;;;;;;;;;5085037;28;20427;-67
2021/07/11 02:08:07;;;;;;;2.23;1.73;;;;;;;;;;5072885;28;20403;-68
2021/07/11 02:10:33;;;;;;;2.80;1.87;;;;;;;;;;5076569;28;20460;-68
2021/07/11 02:13:03;;;;;;;2.43;1.57;;;;;;;;;;5092768;28;20408;-68
2021/07/11 02:15:29;;;;;;;3.13;1.73;;;;;;;;;;5090116;28;20439;-68
2021/07/11 02:17:56;;;;;;;2.23;1.23;;;;;;;;;;5092863;28;20404;-68
2021/07/11 02:20:23;;;;;;;2.97;2.03;;;;;;;;;;5090210;28;20449;-68
2021/07/11 02:22:50;;;;;;;2.07;1.60;;;;;;;;;;5092740;28;20404;-68
2021/07/11 02:25:17;;;;;;;1.80;1.40;;;;;;;;;;5090374;28;20449;-68
2021/07/11 02:27:47;;;;;;;2.50;1.63;;;;;;;;;;5072471;28;20458;-68
2021/07/11 02:30:16;;;;;;;1.93;1.40;;;;;;;;;;5072897;28;20456;-69
2021/07/11 02:32:44;;;;;;;3.10;1.70;;;;;;;;;;5092754;28;20400;-68
2021/07/11 02:35:12;;;;;;;1.70;1.30;;;;;;;;;;5091715;28;20408;-68
2021/07/11 02:37:40;;;;;;;2.00;1.30;;;;;;;;;;5092602;28;20457;-68
2021/07/11 02:40:08;;;;;;;1.80;1.30;;;;;;;;;;5091743;28;20480;-68
2021/07/11 02:42:34;;;;;;;2.40;1.50;;;;;;;;;;5108121;28;20423;-68
2021/07/11 02:45:01;;;;;;;1.57;1.03;;;;;;;;;;5112957;28;20431;-68
2021/07/11 02:47:29;;;;;;;2.63;1.27;;;;;;;;;;5073318;28;20905;-68
2021/07/11 02:49:57;;;;;;;1.90;1.27;;;;;;;;;;5073910;28;20507;-68
2021/07/11 02:52:24;;;;;;;2.00;1.10;;;;;;;;;;5075895;28;20860;-68
2021/07/11 02:54:58;;;;;;;3.10;1.30;;;;;;;;;;5075641;28;20543;-68
2021/07/11 02:57:26;;;;;;;2.83;1.40;;;;;;;;;;5091058;28;20423;-68
2021/07/11 02:59:53;;;;;;;1.90;1.03;;;;;;;;;;5084746;28;20460;-68
2021/07/11 03:02:20;;;;;;;1.70;1.30;;;;;;;;;;5076234;28;20421;-68
2021/07/11 03:04:46;;;;;;;1.50;1.03;;;;;;;;;;5091812;28;20428;-68
2021/07/11 03:07:12;;;;;;;1.90;1.27;;;;;;;;;;5094762;28;20493;-68
2021/07/11 03:09:41;;;;;;;1.77;1.13;;;;;;;;;;5096188;28;20823;-68
2021/07/11 03:12:07;;;;;;;2.10;1.13;;;;;;;;;;5093478;28;20458;-68
2021/07/11 03:14:33;;;;;;;1.90;1.20;;;;;;;;;;5113837;28;20423;-68
2021/07/11 03:17:00;;;;;;;1.80;1.10;;;;;;;;;;5100669;28;20431;-68
2021/07/11 03:19:27;;;;;;;2.00;1.30;;;;;;;;;;5101993;28;20529;-68
2021/07/11 03:21:53;;;;;;;2.13;1.30;;;;;;;;;;5100623;28;20416;-68
2021/07/11 03:24:23;;;;;;;3.10;1.27;;;;;;;;;;5116411;28;20418;-67
2021/07/11 03:26:51;;;;;;;1.50;0.90;;;;;;;;;;5103008;28;20431;-67
2021/07/11 03:29:54;;;;;;;2.30;1.50;;;;;;;;;;5090991;28;20535;-67
2021/07/11 03:32:23;;;;;;;1.70;1.20;;;;;;;;;;5056415;28;20445;-67
2021/07/11 03:34:50;;;;;;;1.83;1.10;;;;;;;;;;5082715;28;20428;-67
2021/07/11 03:37:18;;;;;;;2.17;1.10;;;;;;;;;;5081208;28;20425;-68
2021/07/11 03:39:45;;;;;;;3.10;1.40;;;;;;;;;;5077180;28;20459;-68
2021/07/11 03:42:11;;;;;;;1.80;1.00;;;;;;;;;;5090701;28;20423;-69
2021/07/11 03:44:40;;;;;;;2.00;1.30;;;;;;;;;;5097082;28;20400;-68
2021/07/11 03:47:07;;;;;;;3.33;1.07;;;;;;;;;;5082555;28;20425;-68
2021/07/11 03:49:33;;;;;;;2.00;1.30;;;;;;;;;;5076929;28;20453;-68
2021/07/11 03:52:02;;;;;;;2.20;1.13;;;;;;;;;;5083154;28;20440;-68
2021/07/11 03:54:29;;;;;;;2.00;1.30;;;;;;;;;;5074869;28;20424;-68
2021/07/11 03:56:55;;;;;;;2.43;1.00;;;;;;;;;;5074679;28;20445;-68
2021/07/11 03:59:22;;;;;;;1.40;0.97;;;;;;;;;;5074592;28;20474;-68
2021/07/11 04:01:50;;;;;;;2.13;1.20;;;;;;;;;;5084410;28;20435;-68
2021/07/11 04:04:16;;;;;;;1.77;0.93;;;;;;;;;;5094832;28;20404;-68
2021/07/11 04:06:45;;;;;;;2.10;1.07;;;;;;;;;;5085177;28;20780;-68
2021/07/11 04:09:11;;;;;;;2.90;1.30;;;;;;;;;;5084195;28;20440;-68
2021/07/11 04:11:37;;;;;;;2.00;1.00;;;;;;;;;;5093651;28;20416;-68
2021/07/11 04:14:04;;;;;;;1.70;1.03;;;;;;;;;;5094976;28;20489;-68
2021/07/11 04:16:32;;;;;;;2.33;1.23;;;;;;;;;;5093721;28;20511;-68
2021/07/11 04:19:00;;;;;;;3.20;1.40;;;;;;;;;;5093896;28;20403;-68
2021/07/11 04:21:30;;;;;;;2.50;1.30;;;;;;;;;;5079645;28;20519;-68
2021/07/11 04:23:58;;;;;;;1.80;1.20;;;;;;;;;;5094548;28;20396;-68
2021/07/11 04:26:25;;;;;;;1.80;1.00;;;;;;;;;;5093356;28;20973;-68
2021/07/11 04:28:53;;;;;;;1.90;1.00;;;;;;;;;;5094444;28;20415;-68
2021/07/11 04:31:19;;;;;;;2.00;1.10;;;;;;;;;;5093101;28;20553;-68
2021/07/11 04:33:49;;;;;;;1.80;1.13;;;;;;;;;;5094230;28;20957;-68
2021/07/11 04:36:15;;;;;;;1.70;1.10;;;;;;;;;;5093555;28;20510;-68
2021/07/11 04:38:41;;;;;;;1.40;0.87;;;;;;;;;;5094247;28;20431;-68
2021/07/11 04:41:09;;;;;;;2.00;1.33;;;;;;;;;;5091327;28;21226;-68
2021/07/11 04:43:36;;;;;;;1.60;1.10;;;;;;;;;;5073856;28;20397;-68
2021/07/11 04:46:02;;;;;;;1.50;0.90;;;;;;;;;;5074548;28;20401;-68
2021/07/11 04:48:28;;;;;;;9.60;1.37;;;;;;;;;;5093943;28;20495;-68
2021/07/11 04:50:54;;;;;;;1.80;0.90;;;;;;;;;;5092859;28;20534;-68
2021/07/11 04:53:21;;;;;;;2.87;1.20;;;;;;;;;;5085026;28;20441;-68
2021/07/11 04:55:48;;;;;;;1.60;1.23;;;;;;;;;;5073553;28;20409;-67
2021/07/11 04:58:14;;;;;;;1.70;1.00;;;;;;;;;;5092309;28;20431;-67
2021/07/11 05:00:40;;;;;;;1.97;1.20;;;;;;;;;;5093985;28;20436;-67
2021/07/11 05:03:07;;;;;;;2.07;1.10;;;;;;;;;;5092701;28;20424;-67
2021/07/11 05:05:36;;;;;;;1.80;1.03;;;;;;;;;;5093779;28;20828;-67
2021/07/11 05:08:05;;;;;;;1.53;1.10;;;;;;;;;;5092732;28;20424;-67
2021/07/11 05:10:31;;;;;;;1.60;1.10;;;;;;;;;;5093390;28;20452;-67
2021/07/11 05:12:57;;;;;;;2.10;1.33;;;;;;;;;;5090943;28;20477;-67
2021/07/11 05:15:23;;;;;;;2.30;1.27;;;;;;;;;;5093558;28;20408;-67
2021/07/11 05:17:49;;;;;;;7.87;1.23;;;;;;;;;;5092865;28;20427;-67
2021/07/11 05:20:16;;;;;;;1.53;0.97;;;;;;;;;;5093482;28;20415;-67
2021/07/11 05:22:42;;;;;;;3.20;1.10;;;;;;;;;;5079172;28;20433;-67
2021/07/11 05:25:08;;;;;;;1.83;1.00;;;;;;;;;;5073435;28;20416;-67
2021/07/11 05:27:35;;;;;;;1.93;1.20;;;;;;;;;;5091545;28;20793;-67
2021/07/11 05:30:01;;;;;;;1.90;1.20;;;;;;;;;;5113504;28;20959;-67
2021/07/11 05:32:28;;;;;;;1.50;1.00;;;;;;;;;;5100890;28;20432;-67
2021/07/11 05:34:54;;;;;;;2.67;1.10;;;;;;;;;;5093467;28;20397;-67
2021/07/11 05:37:20;;;;;;;1.80;1.20;;;;;;;;;;5092634;28;20825;-67
2021/07/11 05:39:46;;;;;;;1.60;1.03;;;;;;;;;;5093263;28;20471;-67
2021/07/11 05:42:12;;;;;;;2.27;1.20;;;;;;;;;;5092301;28;20431;-67
2021/07/11 05:44:38;;;;;;;2.90;1.23;;;;;;;;;;5093514;28;20407;-67
2021/07/11 05:47:05;;;;;;;9.77;1.67;;;;;;;;;;5092231;28;20506;-67
2021/07/11 05:49:31;;;;;;;2.00;1.10;;;;;;;;;;5093197;28;20455;-67
2021/07/11 05:51:57;;;;;;;1.60;0.83;;;;;;;;;;5091814;28;20454;-67
2021/07/11 05:54:23;;;;;;;1.70;1.10;;;;;;;;;;5087314;28;20648;-67
2021/07/11 05:56:49;;;;;;;7.40;1.70;;;;;;;;;;5081428;28;20942;-67
2021/07/11 05:59:15;;;;;;;2.13;1.33;;;;;;;;;;5093012;28;20498;-67
2021/07/11 06:01:41;;;;;;;3.30;1.03;;;;;;;;;;5091226;28;20415;-68
2021/07/11 06:04:07;;;;;;;4.37;1.13;;;;;;;;;;5093042;28;20821;-68
2021/07/11 06:06:33;;;;;;;1.80;0.80;;;;;;;;;;5093030;28;20483;-68
2021/07/11 06:08:59;;;;;;;1.97;1.10;;;;;;;;;;5093026;28;20395;-68
2021/07/11 06:11:25;;;;;;;1.70;1.10;;;;;;;;;;5091145;28;20819;-67
2021/07/11 06:13:51;;;;;;;2.30;1.27;;;;;;;;;;5072724;28;20392;-68
2021/07/11 06:16:17;;;;;;;2.60;1.00;;;;;;;;;;5072692;28;20397;-68
2021/07/11 06:18:43;;;;;;;2.17;1.00;;;;;;;;;;5090797;28;20919;-68
2021/07/11 06:21:09;;;;;;;1.67;1.00;;;;;;;;;;5092861;28;20392;-68
2021/07/11 06:23:36;;;;;;;1.53;0.90;;;;;;;;;;5091749;28;20416;-67
2021/07/11 06:26:02;;;;;;;1.63;0.80;;;;;;;;;;5096128;28;20445;-68
2021/07/11 06:28:28;;;;;;;1.77;0.90;;;;;;;;;;5095490;28;20420;-68
2021/07/11 06:30:54;;;;;;;1.53;1.00;;;;;;;;;;5096522;28;20575;-68
2021/07/11 06:33:20;;;;;;;2.10;1.30;;;;;;;;;;5095486;28;20427;-68
2021/07/11 06:35:46;;;;;;;1.70;1.00;;;;;;;;;;5109085;28;20447;-68
2021/07/11 06:38:12;;;;;;;1.50;0.93;;;;;;;;;;5101394;28;20451;-68
2021/07/11 06:40:38;;;;;;;1.50;0.90;;;;;;;;;;5096328;28;20416;-68
2021/07/11 06:43:04;;;;;;;2.00;1.00;;;;;;;;;;5095348;28;20428;-68
2021/07/11 06:45:30;;;;;;;1.90;1.10;;;;;;;;;;5096728;28;20403;-68
2021/07/11 06:47:56;;;;;;;1.50;0.97;;;;;;;;;;5095413;28;20446;-67
2021/07/11 06:50:22;;;;;;;2.60;1.10;;;;;;;;;;5096152;28;20448;-68
2021/07/11 06:52:51;;;;;;;2.40;1.47;;;;;;;;;;5095062;28;20481;-68
2021/07/11 06:55:17;;;;;;;1.80;1.17;;;;;;;;;;5096237;28;20392;-68
2021/07/11 06:57:43;;;;;;;2.00;0.90;;;;;;;;;;5101411;28;20510;-68
2021/07/11 07:00:11;;;;;;;4.93;1.20;;;;;;;;;;5094832;28;20434;-68
2021/07/11 07:02:38;;;;;;;2.03;1.10;;;;;;;;;;5095019;28;20510;-68
2021/07/11 07:05:04;;;;;;;2.30;1.30;;;;;;;;;;5095115;28;20774;-68
2021/07/11 07:07:31;;;;;;;2.13;1.13;;;;;;;;;;5089139;28;20416;-68
2021/07/11 07:09:57;;;;;;;2.30;1.00;;;;;;;;;;5076027;28;20457;-68
2021/07/11 07:12:23;;;;;;;1.73;1.10;;;;;;;;;;5080570;28;20424;-68
2021/07/11 07:14:49;;;;;;;1.70;1.03;;;;;;;;;;5096393;28;20763;-68
2021/07/11 07:17:15;;;;;;;1.90;1.10;;;;;;;;;;5093672;28;20439;-68
2021/07/11 07:19:41;;;;;;;2.50;1.47;;;;;;;;;;5095857;28;20481;-68
2021/07/11 07:22:08;;;;;;;4.20;1.23;;;;;;;;;;5095561;28;20431;-68
2021/07/11 07:24:34;;;;;;;2.30;1.23;;;;;;;;;;5095927;28;20400;-68
2021/07/11 07:27:00;;;;;;;1.93;1.30;;;;;;;;;;5094693;28;20405;-68
2021/07/11 07:29:26;;;;;;;4.60;1.47;;;;;;;;;;5095573;28;20562;-68
2021/07/11 07:31:52;;;;;;;1.70;0.90;;;;;;;;;;5095509;28;20839;-68
2021/07/11 07:34:18;;;;;;;2.10;1.20;;;;;;;;;;5095494;28;20412;-68
2021/07/11 07:36:45;;;;;;;2.00;1.27;;;;;;;;;;5098907;28;20502;-68
2021/07/11 07:39:11;;;;;;;4.30;1.17;;;;;;;;;;5095269;28;20447;-68
2021/07/11 07:41:37;;;;;;;3.57;1.60;;;;;;;;;;5094483;28;20419;-68
2021/07/11 07:44:06;;;;;;;2.20;1.27;;;;;;;;;;5093898;28;20980;-68
2021/07/11 07:46:32;;;;;;;1.80;1.10;;;;;;;;;;5095434;28;20819;-67
2021/07/11 07:48:59;;;;;;;2.03;1.10;;;;;;;;;;5093529;28;20762;-68
2021/07/11 07:51:25;;;;;;;1.80;1.17;;;;;;;;;;5095023;28;20443;-68
2021/07/11 07:53:51;;;;;;;1.63;1.00;;;;;;;;;;5093813;28;20432;-68
2021/07/11 07:56:17;;;;;;;1.70;1.10;;;;;;;;;;5095067;28;20479;-68
2021/07/11 07:58:43;;;;;;;2.33;1.30;;;;;;;;;;5094268;28;20452;-68
2021/07/11 08:01:09;;;;;;;1.70;1.10;;;;;;;;;;5095014;28;20403;-68
2021/07/11 08:03:35;;;;;;;2.03;1.30;;;;;;;;;;5094073;28;20510;-68
2021/07/11 08:06:01;;;;;;;3.17;1.60;;;;;;;;;;5094856;28;20396;-68
2021/07/11 08:08:27;;;;;;;1.87;1.13;;;;;;;;;;5093992;28;20959;-68
2021/07/11 08:10:53;;;;;;;3.57;1.57;;;;;;;;;;5094720;28;20448;-68
2021/07/11 08:13:19;;;;;;;2.17;1.37;;;;;;;;;;5093824;28;20502;-68
2021/07/11 08:15:47;;;;;;;2.40;1.40;;;;;;;;;;5099204;28;20426;-67
2021/07/11 08:18:13;;;;;;;2.07;1.50;;;;;;;;;;5104625;28;20832;-67
2021/07/11 08:20:39;;;;;;;2.60;1.30;;;;;;;;;;5094850;28;20432;-68
2021/07/11 08:23:05;;;;;;;3.37;1.57;;;;;;;;;;5093615;28;20424;-68
2021/07/11 08:25:31;;;;;;;4.33;1.47;;;;;;;;;;5094578;28;20423;-68
2021/07/11 08:27:57;;;;;;;3.60;1.83;;;;;;;;;;5093798;28;20775;-68
2021/07/11 08:30:23;;;;;;;3.50;1.73;;;;;;;;;;5094521;28;20817;-68
2021/07/11 08:32:49;;;;;;;1.80;1.10;;;;;;;;;;5093176;28;20413;-68
2021/07/11 08:35:15;;;;;;;2.30;1.40;;;;;;;;;;5094392;28;20392;-68
2021/07/11 08:37:42;;;;;;;3.20;1.67;;;;;;;;;;5093638;28;20503;-67
2021/07/11 08:40:09;;;;;;;2.70;1.70;;;;;;;;;;5094387;28;20424;-68
2021/07/11 08:42:36;;;;;;;3.40;1.40;;;;;;;;;;5093250;28;20462;-67
2021/07/11 08:45:02;;;;;;;2.23;1.40;;;;;;;;;;5094137;28;20401;-67
2021/07/11 08:47:28;;;;;;;2.57;1.27;;;;;;;;;;5092283;28;20892;-68
2021/07/11 08:49:54;;;;;;;3.90;1.53;;;;;;;;;;5094123;28;20524;-68
2021/07/11 08:52:20;;;;;;;5.40;1.90;;;;;;;;;;5093367;28;20454;-69
2021/07/11 08:54:46;;;;;;;2.17;1.20;;;;;;;;;;5094094;28;20443;-68
2021/07/11 08:57:12;;;;;;;2.50;1.53;;;;;;;;;;5094173;28;20425;-68
2021/07/11 08:59:40;;;;;;;2.50;1.37;;;;;;;;;;5093107;28;20447;-69
2021/07/11 09:02:07;;;;;;;2.53;1.47;;;;;;;;;;5096706;28;20477;-68
2021/07/11 09:04:46;;;;;;;6.20;1.30;;;;;;;;;;5095953;28;20426;-69
2021/07/11 09:07:18;;;;;;;2.20;1.30;;;;;;;;;;5096083;28;20385;-68
2021/07/11 09:09:44;;;;;;;2.67;1.50;;;;;;;;;;5094568;28;20460;-68
2021/07/11 09:12:11;;;;;;;2.00;1.20;;;;;;;;;;5095841;28;20408;-68
2021/07/11 09:14:38;;;;;;;2.70;1.43;;;;;;;;;;5094189;28;20473;-68
2021/07/11 09:17:05;;;;;;;2.00;1.30;;;;;;;;;;5094911;28;20813;-68
2021/07/11 09:19:33;;;;;;;2.80;1.63;;;;;;;;;;5092157;28;20510;-68
2021/07/11 09:22:02;;;;;;;3.60;1.33;;;;;;;;;;5100174;28;20422;-68
2021/07/11 09:24:28;;;;;;;2.43;1.43;;;;;;;;;;5095784;28;20430;-68
2021/07/11 09:26:55;;;;;;;2.10;1.40;;;;;;;;;;5093389;28;20480;-68
2021/07/11 09:29:29;;;;;;;2.83;1.50;;;;;;;;;;5092602;28;20491;-68
2021/07/11 09:31:55;;;;;;;2.93;1.60;;;;;;;;;;5093577;28;20388;-68
2021/07/11 09:34:23;;;;;;;2.57;1.73;;;;;;;;;;5092702;28;20416;-68
2021/07/11 09:37:01;;;;;;;2.37;1.53;;;;;;;;;;5093239;28;20403;-68
2021/07/11 09:39:27;;;;;;;2.10;1.30;;;;;;;;;;5091977;28;20436;-68
2021/07/11 09:41:54;;;;;;;2.73;1.83;;;;;;;;;;5093312;28;20469;-68
2021/07/11 09:44:20;;;;;;;3.83;1.77;;;;;;;;;;5091978;28;20415;-68
2021/07/11 09:46:46;;;;;;;2.50;1.63;;;;;;;;;;5091766;28;20431;-68
2021/07/11 09:49:16;;;;;;;2.47;1.50;;;;;;;;;;5083759;28;20435;-68
2021/07/11 09:51:42;;;;;;;3.73;2.20;;;;;;;;;;5093170;28;20396;-68
2021/07/11 09:54:12;;;;;;;2.23;1.50;;;;;;;;;;5091627;28;20438;-68
2021/07/11 09:56:42;;;;;;;2.80;1.67;;;;;;;;;;5072731;28;20393;-68
2021/07/11 09:59:09;;;;;;;2.37;1.67;;;;;;;;;;5086849;28;20436;-68
2021/07/11 10:01:36;;;;;;;2.77;2.17;;;;;;;;;;5097143;28;20809;-68
2021/07/11 10:04:03;;;;;;;2.37;1.60;;;;;;;;;;5085313;28;20417;-68
2021/07/11 10:06:30;;;;;;;2.47;2.00;;;;;;;;;;5077100;28;20404;-68
2021/07/11 10:08:56;;;;;;;2.30;1.47;;;;;;;;;;5076810;28;20872;-68
2021/07/11 10:11:22;;;;;;;2.47;1.80;;;;;;;;;;5076605;28;20964;-67
2021/07/11 10:13:49;;;;;;;2.90;1.67;;;;;;;;;;5085640;28;20416;-67
2021/07/11 10:16:15;;;;;;;3.27;1.80;;;;;;;;;;5096963;28;20479;-67
2021/07/11 10:18:43;;;;;;;2.53;1.70;;;;;;;;;;5095954;28;20419;-68
2021/07/11 10:21:10;;;;;;;2.90;2.03;;;;;;;;;;5096973;28;20460;-67
2021/07/11 10:23:37;;;;;;;2.23;1.60;;;;;;;;;;5095832;28;20420;-67
2021/07/11 10:26:07;;;;;;;4.10;1.90;;;;;;;;;;5096743;28;20411;-68
2021/07/11 10:28:34;;;;;;;3.00;1.77;;;;;;;;;;5095240;28;20427;-68
2021/07/11 10:31:00;;;;;;;2.60;1.60;;;;;;;;;;5096615;28;20455;-68
2021/07/11 10:33:27;;;;;;;3.40;2.03;;;;;;;;;;5095882;28;20419;-69
2021/07/11 10:35:56;;;;;;;3.70;2.07;;;;;;;;;;5096690;28;20395;-68
2021/07/11 10:38:36;;;;;;;3.20;1.93;;;;;;;;;;5092070;28;20413;-68
2021/07/11 10:41:08;;;;;;;2.70;1.70;;;;;;;;;;5076189;28;20428;-69
2021/07/11 10:43:34;;;;;;;3.03;2.17;;;;;;;;;;5076564;28;20523;-69
2021/07/11 10:46:00;;;;;;;6.97;2.20;;;;;;;;;;5087425;28;20427;-69
2021/07/11 10:48:30;;;;;;;2.80;2.20;;;;;;;;;;5110659;28;20841;-69
2021/07/11 10:50:57;;;;;;;2.10;1.60;;;;;;;;;;5096583;28;20483;-69
2021/07/11 10:53:23;;;;;;;2.80;1.70;;;;;;;;;;5095259;28;20943;-68
2021/07/11 10:55:49;;;;;;;3.00;2.30;;;;;;;;;;5096548;28;20397;-68
2021/07/11 10:58:16;;;;;;;3.07;2.10;;;;;;;;;;5093301;28;20428;-70
2021/07/11 11:00:43;;;;;;;2.37;1.77;;;;;;;;;;5114125;28;20489;-68
2021/07/11 11:03:25;;;;;;;2.97;1.80;;;;;;;;;;5092472;28;20489;-69
2021/07/11 11:05:53;;;;;;;2.50;1.80;;;;;;;;;;5096285;28;20433;-68
2021/07/11 11:08:21;;;;;;;2.30;1.80;;;;;;;;;;5095107;28;20432;-69
2021/07/11 11:10:48;;;;;;;3.70;2.20;;;;;;;;;;5094982;28;20504;-68
2021/07/11 11:13:17;;;;;;;3.07;1.80;;;;;;;;;;5095265;28;20438;-68
2021/07/11 11:15:48;;;;;;;3.37;2.50;;;;;;;;;;5095649;28;20408;-68
2021/07/11 11:18:17;;;;;;;3.20;1.90;;;;;;;;;;5094934;28;20763;-69
2021/07/11 11:20:44;;;;;;;3.20;1.90;;;;;;;;;;5095472;28;20453;-68
2021/07/11 11:23:11;;;;;;;4.93;2.10;;;;;;;;;;5094594;28;20474;-68
2021/07/11 11:25:38;;;;;;;2.97;2.13;;;;;;;;;;5096195;28;20749;-68
2021/07/11 11:28:04;;;;;;;4.70;2.20;;;;;;;;;;5095307;28;20803;-69
2021/07/11 11:30:30;;;;;;;2.40;1.53;;;;;;;;;;5095386;28;20456;-68
2021/07/11 11:33:00;;;;;;;3.37;2.13;;;;;;;;;;5095620;28;20453;-68
2021/07/11 11:35:27;;;;;;;2.50;1.90;;;;;;;;;;5094280;28;20458;-67
2021/07/11 11:37:54;;;;;;;4.40;2.40;;;;;;;;;;5079129;28;20426;-68
2021/07/11 11:40:21;;;;;;;2.17;1.43;;;;;;;;;;5075112;28;20459;-69
2021/07/11 11:42:54;;;;;;;3.20;1.47;;;;;;;;;;5075094;28;20396;-68
2021/07/11 11:45:23;;;;;;;2.50;1.60;;;;;;;;;;5084703;28;20944;-69
2021/07/11 11:48:00;;;;;;;2.33;1.63;;;;;;;;;;5115974;28;20762;-69
2021/07/11 11:50:26;;;;;;;4.53;1.53;;;;;;;;;;5107317;28;20461;-67
2021/07/11 11:53:02;;;;;;;3.00;1.90;;;;;;;;;;5115577;28;20419;-68
2021/07/11 11:55:29;;;;;;;2.70;1.70;;;;;;;;;;5102993;28;20784;-68
2021/07/11 11:57:59;;;;;;;2.80;1.97;;;;;;;;;;5095040;28;20733;-68
2021/07/11 12:00:25;;;;;;;2.60;1.50;;;;;;;;;;5094241;28;20438;-69
2021/07/11 12:02:58;;;;;;;3.10;1.50;;;;;;;;;;5095435;28;20495;-69
2021/07/11 12:05:24;;;;;;;3.00;1.70;;;;;;;;;;5093994;28;20463;-69
2021/07/11 12:07:50;;;;;;;6.93;1.90;;;;;;;;;;5093430;28;20484;-68
2021/07/11 12:10:16;;;;;;;2.93;1.70;;;;;;;;;;5093755;28;20455;-68
2021/07/11 12:12:53;;;;;;;2.80;1.80;;;;;;;;;;5094796;28;20400;-67
2021/07/11 12:15:27;;;;;;;6.03;2.10;;;;;;;;;;5100499;28;20458;-67
2021/07/11 12:17:59;;;;;;;3.07;2.00;;;;;;;;;;5100070;28;20426;-69
2021/07/11 12:20:25;;;;;;;2.93;1.77;;;;;;;;;;5092981;28;20526;-68
2021/07/11 12:22:51;;;;;;;3.77;1.93;;;;;;;;;;5093553;28;20760;-68
2021/07/11 12:25:26;;;;;;;3.77;2.20;;;;;;;;;;5093126;28;20434;-68
2021/07/11 12:28:01;;;;;;;3.13;1.93;;;;;;;;;;5094532;28;20429;-68
2021/07/11 12:30:34;;;;;;;2.80;1.97;;;;;;;;;;5093066;28;20454;-70
2021/07/11 12:33:00;;;;;;;2.60;2.00;;;;;;;;;;5093064;28;20766;-68
2021/07/11 12:35:26;;;;;;;4.30;1.80;;;;;;;;;;5093761;28;20831;-69
2021/07/11 12:37:56;;;;;;;3.00;1.80;;;;;;;;;;5114467;28;20752;-69
2021/07/11 12:40:24;;;;;;;3.37;1.50;;;;;;;;;;5102276;28;20497;-69
2021/07/11 12:43:03;;;;;;;3.17;1.87;;;;;;;;;;5073799;28;20487;-69
2021/07/11 12:45:29;;;;;;;3.77;2.83;;;;;;;;;;5079744;28;20468;-69
2021/07/11 12:47:55;;;;;;;5.50;2.40;;;;;;;;;;5094084;28;20407;-69
2021/07/11 12:50:35;;;;;;;8.23;3.03;;;;;;;;;;5090050;28;20458;-69
2021/07/11 12:53:01;;;;;;;6.00;2.73;;;;;;;;;;5073775;28;20425;-69
2021/07/11 12:55:27;;;;;;;5.97;3.20;;;;;;;;;;5073709;28;20450;-68
2021/07/11 12:57:53;;;;;;;3.23;2.27;;;;;;;;;;5073733;28;20411;-68
2021/07/11 13:00:29;;;;;;;5.37;3.23;;;;;;;;;;5073519;28;20940;-68
2021/07/11 13:02:59;;;;;;;4.47;2.53;;;;;;;;;;5073896;28;20405;-68
2021/07/11 13:05:42;;;;;;;3.40;2.40;;;;;;;;;;5073857;28;20757;-68
2021/07/11 13:08:10;;;;;;;3.30;2.30;;;;;;;;;;5073461;28;20413;-69
2021/07/11 13:10:40;;;;;;;4.77;2.90;;;;;;;;;;5072997;28;20455;-69
2021/07/11 13:13:11;;;;;;;4.53;2.90;;;;;;;;;;5073163;28;20905;-69
2021/07/11 13:15:38;;;;;;;3.73;2.50;;;;;;;;;;5079371;28;20451;-69
2021/07/11 13:18:05;;;;;;;3.80;2.30;;;;;;;;;;5093477;28;20477;-69
2021/07/11 13:20:31;;;;;;;5.23;2.87;;;;;;;;;;5087631;28;20480;-69
2021/07/11 13:22:57;;;;;;;3.60;2.40;;;;;;;;;;5073279;28;20898;-68
2021/07/11 13:25:23;;;;;;;5.90;3.57;;;;;;;;;;5091173;28;20814;-68
2021/07/11 13:27:49;;;;;;;3.70;2.63;;;;;;;;;;5093469;28;20400;-69
2021/07/11 13:30:18;;;;;;;3.87;2.73;;;;;;;;;;5092344;28;20664;-69
2021/07/11 13:32:44;;;;;;;3.03;1.50;;;;;;;;;;5093145;28;20478;-68
2021/07/11 13:35:10;;;;;;;3.03;2.20;;;;;;;;;;5092156;28;20396;-70
2021/07/11 13:37:37;;;;;;;2.57;1.83;;;;;;;;;;5093739;28;20399;-68
2021/07/11 13:40:05;;;;;;;2.77;2.03;;;;;;;;;;5092742;28;20424;-68
2021/07/11 13:42:32;;;;;;;2.53;2.03;;;;;;;;;;5073303;28;20404;-68
2021/07/11 13:44:58;;;;;;;3.17;1.87;;;;;;;;;;5073374;28;20393;-68
2021/07/11 13:47:24;;;;;;;2.80;2.00;;;;;;;;;;5092241;28;20423;-68
2021/07/11 13:49:50;;;;;;;3.27;2.37;;;;;;;;;;5093224;28;20454;-68
2021/07/11 13:52:16;;;;;;;2.57;1.83;;;;;;;;;;5104577;28;20411;-68
2021/07/11 13:54:42;;;;;;;3.30;2.00;;;;;;;;;;5112120;28;20423;-68
2021/07/11 13:57:08;;;;;;;3.10;2.20;;;;;;;;;;5093683;28;20431;-68
2021/07/11 13:59:34;;;;;;;3.03;2.43;;;;;;;;;;5093205;28;20418;-68
2021/07/11 14:02:00;;;;;;;3.03;2.13;;;;;;;;;;5092273;28;20804;-67
2021/07/11 14:04:26;;;;;;;2.30;1.40;;;;;;;;;;5093318;28;20423;-69
2021/07/11 14:06:55;;;;;;;5.03;1.40;;;;;;;;;;5092143;28;20502;-68
2021/07/11 14:09:21;;;;;;;3.57;1.47;;;;;;;;;;5093703;28;20419;-68
2021/07/11 14:11:47;;;;;;;4.03;1.60;;;;;;;;;;5078989;28;20481;-68
2021/07/11 14:14:13;;;;;;;1.80;1.30;;;;;;;;;;5072846;28;20396;-68
2021/07/11 14:16:39;;;;;;;2.20;1.60;;;;;;;;;;5073008;28;20786;-68
2021/07/11 14:19:05;;;;;;;2.23;1.40;;;;;;;;;;5072665;28;20421;-68
2021/07/11 14:21:31;;;;;;;2.33;1.50;;;;;;;;;;5083388;28;20428;-68
2021/07/11 14:23:57;;;;;;;2.00;1.23;;;;;;;;;;5093280;28;20911;-68
2021/07/11 14:26:23;;;;;;;2.27;1.07;;;;;;;;;;5091948;28;20424;-68
2021/07/11 14:28:50;;;;;;;2.00;1.30;;;;;;;;;;5092913;28;20490;-69
2021/07/11 14:31:16;;;;;;;1.87;1.10;;;;;;;;;;5082629;28;20456;-68
2021/07/11 14:33:42;;;;;;;1.93;1.10;;;;;;;;;;5072313;28;20450;-69
2021/07/11 14:36:08;;;;;;;2.10;1.37;;;;;;;;;;5079075;28;20904;-69
2021/07/11 14:38:35;;;;;;;1.70;1.00;;;;;;;;;;5092647;28;20897;-69
2021/07/11 14:41:01;;;;;;;1.90;1.00;;;;;;;;;;5090688;28;20956;-68
2021/07/11 14:43:27;;;;;;;1.70;0.90;;;;;;;;;;5112916;28;20395;-68